Terminal Aerodrome Forecast
Issued by NWS Jackson, MS

Home | Current Version | Previous Version | Text Only | Print | Product List | Glossary On
Versions: 1 2 3 4 5 6 7 8 9 10 11 12 13 14 15 16 17 18 19 20 21 22 23 24
000
FTUS44 KMEG 280538
TAFTUP
TAF
KTUP 280538Z 2806/2906 20005KT P6SM SCT009
     FM280900 00000KT 5SM BR OVC004
      TEMPO 2810/2814 1SM BR BKN003
     FM281500 17005KT P6SM OVC009
     FM281700 15005KT P6SM OVC015
      TEMPO 2821/2901 4SM -TSRA OVC007CB
     FM290200 16005KT P6SM OVC015=

USA.gov is the U.S. government's official web portal to all federal, state and local government web resources and services.